createdAt,value
2023-02-14T00:00:50.150Z,5.02
2023-02-14T00:03:16.844Z,5.07
2023-02-14T00:05:43.600Z,5.07
2023-02-14T00:08:10.340Z,5.06
2023-02-14T00:10:37.042Z,5.02
2023-02-14T00:13:04.268Z,5.02
2023-02-14T00:15:30.938Z,4.99
2023-02-14T00:18:00.703Z,4.98
2023-02-14T00:20:28.200Z,4.99
2023-02-14T00:22:55.326Z,4.98
2023-02-14T00:25:22.055Z,4.97
2023-02-14T00:27:48.912Z,4.96
2023-02-14T00:30:15.801Z,4.96
2023-02-14T00:32:42.606Z,4.94
2023-02-14T00:35:09.960Z,4.95
2023-02-14T00:37:36.770Z,4.94
2023-02-14T00:40:05.263Z,4.94
2023-02-14T00:42:32.011Z,4.90
2023-02-14T00:44:58.746Z,4.90
2023-02-14T00:47:25.576Z,4.88
2023-02-14T00:49:52.257Z,4.89
2023-02-14T00:52:19.163Z,4.89
2023-02-14T00:54:45.965Z,4.90
2023-02-14T00:57:12.636Z,4.90
2023-02-14T00:59:39.384Z,4.89
2023-02-14T01:02:06.086Z,4.89
2023-02-14T01:04:32.801Z,4.90
2023-02-14T01:06:59.492Z,4.89
2023-02-14T01:09:26.159Z,4.88
2023-02-14T01:11:52.826Z,4.87
2023-02-14T01:14:19.476Z,4.87
2023-02-14T01:16:46.257Z,4.86
2023-02-14T01:19:13.306Z,4.83
2023-02-14T01:21:40.040Z,4.82
2023-02-14T01:24:07.880Z,4.78
2023-02-14T01:26:35.665Z,4.78
2023-02-14T01:29:03.890Z,4.75
2023-02-14T01:31:32.959Z,4.75
2023-02-14T01:34:00.403Z,4.73
2023-02-14T01:36:32.626Z,4.74
2023-02-14T01:39:02.766Z,4.70
2023-02-14T01:41:32.083Z,4.72
2023-02-14T01:44:21.765Z,4.70
2023-02-14T01:46:48.464Z,4.69
2023-02-14T01:49:25.316Z,4.66
2023-02-14T01:51:58.385Z,4.66
2023-02-14T01:54:26.851Z,4.65
2023-02-14T01:56:58.597Z,4.65
2023-02-14T01:59:28.470Z,4.65
2023-02-14T02:01:55.619Z,4.62
2023-02-14T02:04:31.693Z,4.59
2023-02-14T02:07:03.282Z,4.57
2023-02-14T02:09:38.966Z,4.55
2023-02-14T02:12:05.670Z,4.51
2023-02-14T02:14:33.082Z,4.49
2023-02-14T02:17:27.789Z,4.48
2023-02-14T02:20:32.573Z,4.47
2023-02-14T02:23:29.793Z,4.46
2023-02-14T02:26:26.149Z,4.43
2023-02-14T02:29:30.281Z,4.42
2023-02-14T02:32:25.221Z,4.40
2023-02-14T02:35:25.299Z,4.38
2023-02-14T02:38:20.582Z,4.33
2023-02-14T02:41:04.123Z,4.33
2023-02-14T02:43:36.687Z,4.31
2023-02-14T02:46:44.182Z,4.28
2023-02-14T02:49:36.737Z,4.24
2023-02-14T02:52:27.995Z,4.21
2023-02-14T02:55:01.955Z,4.18
2023-02-14T02:57:35.473Z,4.18
2023-02-14T03:00:06.394Z,4.18
2023-02-14T03:02:57.514Z,4.19
2023-02-14T03:05:25.192Z,4.18
2023-02-14T03:07:51.941Z,4.20
2023-02-14T03:10:30.940Z,4.19
2023-02-14T03:13:18.828Z,4.18
2023-02-14T03:15:53.998Z,4.17
2023-02-14T03:19:01.842Z,4.15
2023-02-14T03:21:47.318Z,4.12
2023-02-14T03:24:25.534Z,4.12
2023-02-14T03:27:15.143Z,4.12
2023-02-14T03:29:52.430Z,4.12
2023-02-14T03:32:38.472Z,4.11
2023-02-14T03:35:32.733Z,4.10
2023-02-14T03:38:15.345Z,4.10
2023-02-14T03:40:49.388Z,4.08
2023-02-14T03:43:25.307Z,4.06
2023-02-14T03:45:58.447Z,4.05
2023-02-14T03:48:27.725Z,4.03
2023-02-14T03:50:56.935Z,4.00
2023-02-14T03:53:28.161Z,3.98
2023-02-14T03:56:19.074Z,3.96
2023-02-14T03:58:50.854Z,3.96
2023-02-14T04:01:35.390Z,3.95
2023-02-14T04:04:05.587Z,3.89
2023-02-14T04:06:32.295Z,3.91
2023-02-14T04:08:59.024Z,3.88
2023-02-14T04:11:25.743Z,3.86
2023-02-14T04:13:52.453Z,3.82
2023-02-14T04:16:19.201Z,3.82
2023-02-14T04:19:04.737Z,3.80
2023-02-14T04:21:31.543Z,3.78
2023-02-14T04:23:58.212Z,3.76
2023-02-14T04:26:24.906Z,3.75
2023-02-14T04:28:51.593Z,3.69
2023-02-14T04:31:18.440Z,3.70
2023-02-14T04:33:46.040Z,3.67
2023-02-14T04:36:12.758Z,3.66
2023-02-14T04:38:39.494Z,3.63
2023-02-14T04:41:06.227Z,3.66
2023-02-14T04:43:32.973Z,3.66
2023-02-14T04:45:59.681Z,3.67
2023-02-14T04:48:26.422Z,3.67
2023-02-14T04:50:54.939Z,3.67
2023-02-14T04:53:22.432Z,3.65
2023-02-14T04:55:49.920Z,3.66
2023-02-14T04:58:17.313Z,3.66
2023-02-14T05:00:44.491Z,3.65
2023-02-14T05:03:11.196Z,3.66
2023-02-14T05:05:37.869Z,3.66
2023-02-14T05:08:04.593Z,3.66
2023-02-14T05:10:31.258Z,3.66
2023-02-14T05:12:57.922Z,3.66
2023-02-14T05:15:24.627Z,3.66
2023-02-14T05:17:51.278Z,3.66
2023-02-14T05:20:18.055Z,3.65
2023-02-14T05:22:44.713Z,3.64
2023-02-14T05:25:11.380Z,3.63
2023-02-14T05:27:38.081Z,3.64
2023-02-14T05:30:06.594Z,3.63
2023-02-14T05:32:33.320Z,3.64
2023-02-14T05:35:01.220Z,3.62
2023-02-14T05:37:28.128Z,3.64
2023-02-14T05:39:54.804Z,3.65
2023-02-14T05:42:21.606Z,3.63
2023-02-14T05:44:48.716Z,3.65
2023-02-14T05:47:15.535Z,3.65
2023-02-14T05:49:42.206Z,3.65
2023-02-14T05:52:08.873Z,3.65
2023-02-14T05:54:35.687Z,3.65
2023-02-14T05:57:02.368Z,3.67
2023-02-14T05:59:29.026Z,3.67
2023-02-14T06:01:55.751Z,3.68
2023-02-14T06:04:22.488Z,3.70
2023-02-14T06:06:49.174Z,3.69
2023-02-14T06:09:16.078Z,3.68
2023-02-14T06:11:42.778Z,3.66
2023-02-14T06:14:09.478Z,3.65
2023-02-14T06:16:36.429Z,3.65
2023-02-14T06:19:03.311Z,3.65
2023-02-14T06:21:30.166Z,3.63
2023-02-14T06:23:56.866Z,3.62
2023-02-14T06:26:27.737Z,3.61
2023-02-14T06:28:56.409Z,3.59
2023-02-14T06:31:23.456Z,3.58
2023-02-14T06:33:50.911Z,3.56
2023-02-14T06:36:18.154Z,3.54
2023-02-14T06:38:45.125Z,3.54
2023-02-14T06:41:11.898Z,3.51
2023-02-14T06:43:38.782Z,3.48
2023-02-14T06:46:05.597Z,3.43
2023-02-14T06:48:32.569Z,3.37
2023-02-14T06:50:59.543Z,3.31
2023-02-14T06:53:26.788Z,3.28
2023-02-14T06:55:53.734Z,3.22
2023-02-14T06:58:20.808Z,3.15
2023-02-14T07:00:47.868Z,3.10
2023-02-14T07:03:14.547Z,3.06
2023-02-14T07:05:41.444Z,3.00
2023-02-14T07:08:08.259Z,2.95
2023-02-14T07:10:35.324Z,2.88
2023-02-14T07:13:02.184Z,2.89
2023-02-14T07:15:28.937Z,2.85
2023-02-14T07:17:55.989Z,2.82
2023-02-14T07:20:22.727Z,2.78
2023-02-14T07:22:49.408Z,2.76
2023-02-14T07:25:16.509Z,2.74
2023-02-14T07:27:44.286Z,2.70
2023-02-14T07:30:11.942Z,2.67
2023-02-14T07:32:39.768Z,2.65
2023-02-14T07:35:06.915Z,2.63
2023-02-14T07:37:34.734Z,2.55
2023-02-14T07:40:02.148Z,2.58
2023-02-14T07:42:28.978Z,2.58
2023-02-14T07:44:55.626Z,2.56
2023-02-14T07:47:22.329Z,2.54
2023-02-14T07:49:49.013Z,2.57
2023-02-14T07:52:15.784Z,2.58
2023-02-14T07:54:42.479Z,2.59
2023-02-14T07:57:09.247Z,2.60
2023-02-14T07:59:35.938Z,2.61
2023-02-14T08:02:02.669Z,2.63
2023-02-14T08:04:30.317Z,2.63
2023-02-14T08:06:57.882Z,2.66
2023-02-14T08:09:24.671Z,2.70
2023-02-14T08:12:14.872Z,2.79
2023-02-14T08:14:42.624Z,2.91
2023-02-14T08:17:10.099Z,2.98
2023-02-14T08:19:37.285Z,3.01
2023-02-14T08:22:05.065Z,3.07
2023-02-14T08:24:32.321Z,3.13
2023-02-14T08:26:59.131Z,3.19
2023-02-14T08:29:26.023Z,3.22
2023-02-14T08:31:53.506Z,3.25
2023-02-14T08:34:20.378Z,3.28
2023-02-14T08:36:47.558Z,3.39
2023-02-14T08:39:14.672Z,3.53
2023-02-14T08:41:41.315Z,3.65
2023-02-14T08:44:08.038Z,3.74
2023-02-14T08:46:34.838Z,3.81
2023-02-14T08:49:01.610Z,3.91
2023-02-14T08:51:28.450Z,3.96
2023-02-14T08:53:55.892Z,4.04
2023-02-14T08:56:22.738Z,4.13
2023-02-14T08:58:52.961Z,4.24
2023-02-14T09:01:20.476Z,4.32
2023-02-14T09:03:47.316Z,4.40
2023-02-14T09:06:17.287Z,4.47
2023-02-14T09:08:45.436Z,4.57
2023-02-14T09:11:21.968Z,4.71
2023-02-14T09:13:50.526Z,4.84
2023-02-14T09:16:18.478Z,4.96
2023-02-14T09:18:46.876Z,5.10
2023-02-14T09:21:16.360Z,5.23
2023-02-14T09:23:43.087Z,5.34
2023-02-14T09:26:11.757Z,5.48
2023-02-14T09:28:38.531Z,5.57
2023-02-14T09:31:14.140Z,5.67
2023-02-14T09:33:44.423Z,5.74
2023-02-14T09:36:13.531Z,5.83
2023-02-14T09:38:40.075Z,5.92
2023-02-14T09:41:09.426Z,5.98
2023-02-14T09:43:46.538Z,6.02
2023-02-14T09:46:16.143Z,6.08
2023-02-14T09:48:47.222Z,6.15
2023-02-14T09:51:20.282Z,6.17
2023-02-14T09:53:51.493Z,6.17
2023-02-14T09:56:29.138Z,6.24
2023-02-14T09:59:15.670Z,6.29
2023-02-14T10:01:45.623Z,6.32
2023-02-14T10:04:38.711Z,6.39
2023-02-14T10:07:18.463Z,6.45
2023-02-14T10:09:54.343Z,6.52
2023-02-14T10:12:31.724Z,6.59
2023-02-14T10:15:09.847Z,6.68
2023-02-14T10:17:47.040Z,6.76
2023-02-14T10:20:20.551Z,6.79
2023-02-14T10:22:57.258Z,6.85
2023-02-14T10:25:29.301Z,6.91
2023-02-14T10:27:58.533Z,6.95
2023-02-14T10:30:25.935Z,7.02
2023-02-14T10:33:00.157Z,7.08
2023-02-14T10:35:47.215Z,7.13
2023-02-14T10:38:45.826Z,7.19
2023-02-14T10:41:42.354Z,7.26
2023-02-14T10:44:30.309Z,7.33
2023-02-14T10:47:14.415Z,7.41
2023-02-14T10:49:50.249Z,7.48
2023-02-14T10:52:28.934Z,7.55
2023-02-14T10:54:59.616Z,7.59
2023-02-14T10:57:36.666Z,7.63
2023-02-14T11:00:10.827Z,7.69
2023-02-14T11:02:41.656Z,7.73
2023-02-14T11:05:25.559Z,7.80
2023-02-14T11:07:52.246Z,7.89
2023-02-14T11:10:26.184Z,7.98
2023-02-14T11:12:53.476Z,8.12
2023-02-14T11:15:27.572Z,8.20
2023-02-14T11:18:35.714Z,8.31
2023-02-14T11:21:07.041Z,8.40
2023-02-14T11:23:36.494Z,8.45
2023-02-14T11:26:07.234Z,8.54
2023-02-14T11:28:34.868Z,8.63
2023-02-14T11:31:02.438Z,8.68
2023-02-14T11:33:42.654Z,8.72
2023-02-14T11:36:15.246Z,8.87
2023-02-14T11:38:43.966Z,9.02
2023-02-14T11:41:14.832Z,9.08
2023-02-14T11:43:43.854Z,9.12
2023-02-14T11:46:24.933Z,9.11
2023-02-14T11:49:06.834Z,9.08
2023-02-14T11:51:36.709Z,9.05
2023-02-14T11:54:05.946Z,9.05
2023-02-14T11:56:54.325Z,9.06
2023-02-14T11:59:27.932Z,9.07
2023-02-14T12:01:55.956Z,9.10
2023-02-14T12:04:30.854Z,9.13
2023-02-14T12:07:16.509Z,9.15
2023-02-14T12:09:44.233Z,9.17
2023-02-14T12:12:21.134Z,9.15
2023-02-14T12:14:48.260Z,9.14
2023-02-14T12:17:43.953Z,9.12
2023-02-14T12:20:19.183Z,9.09
2023-02-14T12:22:49.905Z,9.07
2023-02-14T12:25:24.036Z,9.06
2023-02-14T12:27:57.930Z,9.08
2023-02-14T12:30:29.106Z,9.11
2023-02-14T12:32:57.140Z,9.14
2023-02-14T12:36:00.946Z,9.22
2023-02-14T12:38:42.434Z,9.28
2023-02-14T12:41:35.143Z,9.31
2023-02-14T12:44:12.731Z,9.32
2023-02-14T12:46:59.945Z,9.37
2023-02-14T12:49:47.571Z,9.35
2023-02-14T12:52:40.066Z,9.35
2023-02-14T12:55:33.586Z,9.41
2023-02-14T12:58:19.431Z,9.46
2023-02-14T13:01:16.290Z,9.52
2023-02-14T13:04:13.706Z,9.56
2023-02-14T13:06:48.179Z,9.59
2023-02-14T13:10:06.185Z,9.64
2023-02-14T13:12:45.638Z,9.65
2023-02-14T13:15:33.375Z,9.64
2023-02-14T13:18:12.494Z,9.64
2023-02-14T13:20:50.191Z,9.58
2023-02-14T13:23:28.718Z,9.64
2023-02-14T13:26:03.745Z,9.64
2023-02-14T13:28:31.583Z,9.64
2023-02-14T13:31:00.494Z,9.65
2023-02-14T13:33:52.461Z,9.68
2023-02-14T13:36:20.117Z,9.70
2023-02-14T13:38:51.176Z,9.72
2023-02-14T13:41:20.047Z,9.69
2023-02-14T13:43:46.661Z,9.66
2023-02-14T13:46:16.645Z,9.67
2023-02-14T13:48:56.238Z,9.70
2023-02-14T13:51:49.858Z,9.73
2023-02-14T13:54:31.683Z,9.77
2023-02-14T13:57:22.696Z,9.81
2023-02-14T14:00:21.502Z,9.82
2023-02-14T14:02:53.051Z,9.82
2023-02-14T14:05:42.846Z,9.83
2023-02-14T14:08:22.266Z,9.86
2023-02-14T14:10:59.400Z,9.90
2023-02-14T14:13:41.057Z,9.91
2023-02-14T14:16:27.419Z,9.93
2023-02-14T14:19:26.411Z,9.92
2023-02-14T14:22:04.941Z,9.91
2023-02-14T14:24:33.013Z,9.91
2023-02-14T14:27:06.275Z,9.87
2023-02-14T14:29:40.250Z,9.88
2023-02-14T14:32:14.620Z,9.87
2023-02-14T14:34:49.727Z,9.85
2023-02-14T14:37:19.311Z,9.81
2023-02-14T14:39:50.220Z,9.81
2023-02-14T14:42:17.351Z,9.78
2023-02-14T14:44:50.525Z,9.79
2023-02-14T14:47:27.185Z,9.77
2023-02-14T14:49:59.748Z,9.69
2023-02-14T14:52:34.072Z,9.72
2023-02-14T14:55:02.562Z,9.72
2023-02-14T14:57:29.253Z,9.71
2023-02-14T15:00:28.443Z,9.72
2023-02-14T15:02:56.568Z,9.75
2023-02-14T15:05:26.990Z,9.75
2023-02-14T15:07:53.654Z,9.75
2023-02-14T15:10:23.128Z,9.73
2023-02-14T15:13:10.349Z,9.72
2023-02-14T15:15:37.289Z,9.68
2023-02-14T15:18:06.746Z,9.61
2023-02-14T15:20:34.809Z,9.51
2023-02-14T15:23:02.819Z,9.43
2023-02-14T15:25:33.113Z,9.44
2023-02-14T15:28:00.267Z,9.47
2023-02-14T15:30:33.823Z,9.49
2023-02-14T15:33:03.443Z,9.50
2023-02-14T15:35:33.680Z,9.47
2023-02-14T15:38:04.661Z,9.46
2023-02-14T15:40:33.753Z,9.42
2023-02-14T15:43:21.930Z,9.38
2023-02-14T15:45:56.444Z,9.33
2023-02-14T15:48:23.029Z,9.35
2023-02-14T15:50:52.684Z,9.37
2023-02-14T15:53:19.272Z,9.39
2023-02-14T15:55:49.653Z,9.38
2023-02-14T15:58:23.891Z,9.44
2023-02-14T16:00:52.204Z,9.50
2023-02-14T16:03:22.600Z,9.53
2023-02-14T16:05:50.749Z,9.53
2023-02-14T16:08:38.809Z,9.49
2023-02-14T16:11:14.525Z,9.49
2023-02-14T16:13:47.476Z,9.46
2023-02-14T16:16:15.286Z,9.44
2023-02-14T16:18:43.873Z,9.39
2023-02-14T16:21:28.799Z,9.34
2023-02-14T16:24:07.867Z,9.21
2023-02-14T16:26:37.996Z,9.09
2023-02-14T16:29:06.671Z,8.93
2023-02-14T16:31:33.977Z,8.73
2023-02-14T16:34:00.809Z,8.61
2023-02-14T16:36:30.448Z,8.51
2023-02-14T16:38:57.355Z,8.40
2023-02-14T16:41:27.272Z,8.24
2023-02-14T16:43:55.445Z,8.10
2023-02-14T16:46:28.973Z,7.98
2023-02-14T16:48:57.279Z,7.85
2023-02-14T16:51:29.578Z,7.73
2023-02-14T16:53:59.246Z,7.63
2023-02-14T16:56:28.589Z,7.57
2023-02-14T16:58:57.816Z,7.56
2023-02-14T17:01:25.741Z,7.56
2023-02-14T17:03:52.414Z,7.56
2023-02-14T17:06:23.228Z,7.53
2023-02-14T17:08:52.371Z,7.54
2023-02-14T17:11:20.007Z,7.47
2023-02-14T17:13:47.695Z,7.34
2023-02-14T17:16:16.367Z,7.14
2023-02-14T17:18:48.859Z,7.00
2023-02-14T17:21:16.923Z,6.85
2023-02-14T17:23:43.586Z,6.76
2023-02-14T17:26:11.192Z,6.64
2023-02-14T17:28:38.111Z,6.58
2023-02-14T17:31:05.230Z,6.49
2023-02-14T17:33:33.333Z,6.41
2023-02-14T17:36:10.756Z,6.33
2023-02-14T17:38:39.752Z,6.23
2023-02-14T17:41:16.352Z,6.15
2023-02-14T17:43:43.221Z,6.07
2023-02-14T17:46:10.543Z,5.97
2023-02-14T17:48:37.226Z,5.90
2023-02-14T17:51:09.706Z,5.81
2023-02-14T17:53:36.439Z,5.75
2023-02-14T17:56:08.719Z,5.65
2023-02-14T17:58:36.069Z,5.62
2023-02-14T18:01:11.369Z,5.56
2023-02-14T18:03:39.298Z,5.50
2023-02-14T18:06:07.423Z,5.50
2023-02-14T18:08:37.610Z,5.48
2023-02-14T18:11:09.618Z,5.46
2023-02-14T18:13:37.282Z,5.36
2023-02-14T18:16:10.461Z,5.30
2023-02-14T18:18:37.610Z,5.24
2023-02-14T18:21:06.902Z,5.19
2023-02-14T18:23:33.737Z,5.15
2023-02-14T18:26:04.371Z,5.10
2023-02-14T18:28:31.738Z,5.05
2023-02-14T18:31:06.913Z,5.03
2023-02-14T18:33:34.190Z,4.99
2023-02-14T18:36:02.336Z,4.96
2023-02-14T18:38:29.173Z,4.94
2023-02-14T18:40:55.919Z,4.89
2023-02-14T18:43:22.612Z,4.86
2023-02-14T18:45:49.350Z,4.88
2023-02-14T18:48:16.142Z,4.85
2023-02-14T18:50:42.963Z,4.86
2023-02-14T18:53:09.654Z,4.85
2023-02-14T18:55:38.025Z,4.83
2023-02-14T18:58:07.692Z,4.80
2023-02-14T19:00:34.893Z,4.78
2023-02-14T19:03:01.595Z,4.75
2023-02-14T19:05:28.339Z,4.73
2023-02-14T19:07:58.069Z,4.69
2023-02-14T19:10:24.753Z,4.67
2023-02-14T19:12:52.446Z,4.65
2023-02-14T19:15:19.236Z,4.61
2023-02-14T19:17:45.893Z,4.54
2023-02-14T19:20:13.154Z,4.46
2023-02-14T19:22:41.189Z,4.40
2023-02-14T19:25:08.846Z,4.28
2023-02-14T19:27:35.547Z,4.25
2023-02-14T19:30:02.563Z,4.19
2023-02-14T19:32:29.684Z,4.15
2023-02-14T19:34:56.473Z,4.09
2023-02-14T19:37:23.164Z,4.10
2023-02-14T19:39:50.211Z,4.10
2023-02-14T19:42:16.988Z,4.11
2023-02-14T19:44:45.257Z,4.10
2023-02-14T19:47:26.947Z,4.07
2023-02-14T19:49:58.175Z,4.00
2023-02-14T19:52:26.554Z,3.93
2023-02-14T19:54:55.447Z,3.85
2023-02-14T19:57:22.145Z,3.85
2023-02-14T19:59:48.998Z,3.83
2023-02-14T20:02:19.833Z,3.80
2023-02-14T20:04:46.843Z,3.77
2023-02-14T20:07:13.624Z,3.75
2023-02-14T20:09:40.297Z,3.70
2023-02-14T20:12:07.187Z,3.66
2023-02-14T20:14:47.120Z,3.62
2023-02-14T20:17:17.886Z,3.60
2023-02-14T20:19:44.793Z,3.56
2023-02-14T20:22:11.449Z,3.51
2023-02-14T20:24:38.130Z,3.45
2023-02-14T20:27:04.938Z,3.39
2023-02-14T20:29:32.267Z,3.36
2023-02-14T20:32:03.218Z,3.35
2023-02-14T20:34:30.170Z,3.32
2023-02-14T20:36:59.127Z,3.27
2023-02-14T20:39:31.996Z,3.20
2023-02-14T20:42:01.843Z,3.13
2023-02-14T20:44:28.589Z,3.09
2023-02-14T20:46:56.423Z,3.02
2023-02-14T20:49:25.045Z,2.98
2023-02-14T20:51:52.240Z,2.97
2023-02-14T20:54:20.760Z,2.94
2023-02-14T20:56:48.058Z,2.90
2023-02-14T20:59:14.915Z,2.90
2023-02-14T21:01:41.730Z,2.88
2023-02-14T21:04:08.587Z,2.85
2023-02-14T21:06:38.951Z,2.76
2023-02-14T21:09:06.682Z,2.73
2023-02-14T21:11:33.371Z,2.67
2023-02-14T21:14:01.066Z,2.63
2023-02-14T21:16:29.287Z,2.59
2023-02-14T21:19:01.026Z,2.54
2023-02-14T21:21:38.580Z,2.50
2023-02-14T21:24:11.068Z,2.49
2023-02-14T21:26:38.463Z,2.48
2023-02-14T21:29:06.421Z,2.45
2023-02-14T21:31:33.580Z,2.39
2023-02-14T21:34:01.656Z,2.39
2023-02-14T21:36:30.757Z,2.32
2023-02-14T21:38:59.295Z,2.32
2023-02-14T21:41:28.701Z,2.29
2023-02-14T21:43:57.141Z,2.29
2023-02-14T21:46:38.083Z,2.32
2023-02-14T21:49:24.034Z,2.31
2023-02-14T21:51:50.874Z,2.30
2023-02-14T21:54:17.657Z,2.26
2023-02-14T21:56:44.810Z,2.24
2023-02-14T21:59:12.130Z,2.23
2023-02-14T22:01:41.038Z,2.19
2023-02-14T22:04:10.555Z,2.16
2023-02-14T22:06:39.796Z,2.13
2023-02-14T22:09:07.066Z,2.10
2023-02-14T22:11:34.002Z,2.07
2023-02-14T22:14:01.139Z,1.98
2023-02-14T22:16:28.116Z,1.97
2023-02-14T22:18:54.833Z,1.95
2023-02-14T22:21:24.218Z,1.92
2023-02-14T22:23:51.044Z,1.90
2023-02-14T22:26:25.624Z,1.89
2023-02-14T22:28:56.728Z,1.87
2023-02-14T22:31:25.041Z,1.86
2023-02-14T22:33:52.188Z,1.87
2023-02-14T22:36:19.242Z,1.87
2023-02-14T22:38:46.881Z,1.86
2023-02-14T22:41:19.138Z,1.85
2023-02-14T22:43:45.948Z,1.79
2023-02-14T22:46:16.924Z,1.85
2023-02-14T22:48:44.171Z,1.85
2023-02-14T22:51:30.764Z,1.88
2023-02-14T22:54:00.574Z,1.90
2023-02-14T22:56:36.886Z,1.94
2023-02-14T22:59:07.033Z,2.00
2023-02-14T23:01:35.376Z,2.07
2023-02-14T23:04:03.591Z,2.15
2023-02-14T23:06:32.683Z,2.20
2023-02-14T23:09:00.221Z,2.19
2023-02-14T23:11:29.854Z,2.18
2023-02-14T23:14:15.913Z,2.25
2023-02-14T23:17:01.583Z,2.29
2023-02-14T23:19:50.081Z,2.34
2023-02-14T23:22:31.793Z,2.38
2023-02-14T23:25:00.879Z,2.41
2023-02-14T23:27:58.469Z,2.43
2023-02-14T23:30:25.174Z,2.48
2023-02-14T23:32:51.925Z,2.48
2023-02-14T23:35:19.996Z,2.49
2023-02-14T23:37:46.679Z,2.48
2023-02-14T23:40:13.668Z,2.48
2023-02-14T23:42:40.361Z,2.48
2023-02-14T23:45:26.213Z,2.54
2023-02-14T23:47:53.090Z,2.55
2023-02-14T23:50:19.821Z,2.60
2023-02-14T23:52:46.758Z,2.60
2023-02-14T23:55:13.453Z,2.59
2023-02-14T23:57:40.343Z,2.61
